sensor_id;sensor_type;location;lat;lon;timestamp;temperature;humidity
59146;DHT22;44928;53.074;6.646;2024-03-22T00:01:50;9.70;99.90
59146;DHT22;44928;53.074;6.646;2024-03-22T00:04:17;9.70;99.90
59146;DHT22;44928;53.074;6.646;2024-03-22T00:06:44;9.70;99.90
59146;DHT22;44928;53.074;6.646;2024-03-22T00:09:10;9.70;99.90
59146;DHT22;44928;53.074;6.646;2024-03-22T00:11:36;9.70;99.90
59146;DHT22;44928;53.074;6.646;2024-03-22T00:14:03;9.70;99.90
59146;DHT22;44928;53.074;6.646;2024-03-22T00:16:29;9.70;99.90
59146;DHT22;44928;53.074;6.646;2024-03-22T00:18:55;9.70;99.90
59146;DHT22;44928;53.074;6.646;2024-03-22T00:21:22;9.70;99.90
59146;DHT22;44928;53.074;6.646;2024-03-22T00:23:48;9.70;99.90
59146;DHT22;44928;53.074;6.646;2024-03-22T00:26:14;9.80;99.90
59146;DHT22;44928;53.074;6.646;2024-03-22T00:28:40;9.80;99.90
59146;DHT22;44928;53.074;6.646;2024-03-22T00:31:06;9.80;99.90
59146;DHT22;44928;53.074;6.646;2024-03-22T00:33:32;9.80;99.90
59146;DHT22;44928;53.074;6.646;2024-03-22T00:35:58;9.80;99.90
59146;DHT22;44928;53.074;6.646;2024-03-22T00:38:24;9.80;99.90
59146;DHT22;44928;53.074;6.646;2024-03-22T00:40:49;9.80;99.90
59146;DHT22;44928;53.074;6.646;2024-03-22T00:43:15;9.80;99.90
59146;DHT22;44928;53.074;6.646;2024-03-22T00:45:41;9.90;99.90
59146;DHT22;44928;53.074;6.646;2024-03-22T00:48:07;9.90;99.90
59146;DHT22;44928;53.074;6.646;2024-03-22T00:50:33;9.90;99.90
59146;DHT22;44928;53.074;6.646;2024-03-22T00:52:59;9.90;99.90
59146;DHT22;44928;53.074;6.646;2024-03-22T00:55:25;9.90;99.90
59146;DHT22;44928;53.074;6.646;2024-03-22T00:57:51;9.90;99.90
59146;DHT22;44928;53.074;6.646;2024-03-22T01:00:17;9.90;99.90
59146;DHT22;44928;53.074;6.646;2024-03-22T01:02:44;9.90;99.90
59146;DHT22;44928;53.074;6.646;2024-03-22T01:05:10;9.90;99.90
59146;DHT22;44928;53.074;6.646;2024-03-22T01:07:36;9.90;99.90
59146;DHT22;44928;53.074;6.646;2024-03-22T01:10:03;9.90;99.90
59146;DHT22;44928;53.074;6.646;2024-03-22T01:12:30;9.90;99.90
59146;DHT22;44928;53.074;6.646;2024-03-22T01:14:56;10.00;99.90
59146;DHT22;44928;53.074;6.646;2024-03-22T01:17:22;10.00;99.90
59146;DHT22;44928;53.074;6.646;2024-03-22T01:19:48;10.00;99.90
59146;DHT22;44928;53.074;6.646;2024-03-22T01:22:14;10.00;99.90
59146;DHT22;44928;53.074;6.646;2024-03-22T01:24:40;10.00;99.90
59146;DHT22;44928;53.074;6.646;2024-03-22T01:27:06;10.00;99.90
59146;DHT22;44928;53.074;6.646;2024-03-22T01:29:32;10.00;99.90
59146;DHT22;44928;53.074;6.646;2024-03-22T01:31:58;10.00;99.90
59146;DHT22;44928;53.074;6.646;2024-03-22T01:34:24;10.00;99.90
59146;DHT22;44928;53.074;6.646;2024-03-22T01:36:51;10.00;99.90
59146;DHT22;44928;53.074;6.646;2024-03-22T01:39:18;10.00;99.90
59146;DHT22;44928;53.074;6.646;2024-03-22T01:41:47;10.00;99.90
59146;DHT22;44928;53.074;6.646;2024-03-22T01:44:13;10.00;99.90
59146;DHT22;44928;53.074;6.646;2024-03-22T01:46:40;10.00;99.90
59146;DHT22;44928;53.074;6.646;2024-03-22T01:49:07;10.00;99.90
59146;DHT22;44928;53.074;6.646;2024-03-22T01:51:34;10.00;99.90
59146;DHT22;44928;53.074;6.646;2024-03-22T01:54:01;10.10;99.90
59146;DHT22;44928;53.074;6.646;2024-03-22T01:56:28;10.10;99.90
59146;DHT22;44928;53.074;6.646;2024-03-22T01:58:55;10.10;99.90
59146;DHT22;44928;53.074;6.646;2024-03-22T02:01:21;10.10;99.90
59146;DHT22;44928;53.074;6.646;2024-03-22T02:03:47;10.10;99.90
59146;DHT22;44928;53.074;6.646;2024-03-22T02:06:13;10.10;99.90
59146;DHT22;44928;53.074;6.646;2024-03-22T02:08:40;10.10;99.90
59146;DHT22;44928;53.074;6.646;2024-03-22T02:11:08;10.20;99.90
59146;DHT22;44928;53.074;6.646;2024-03-22T02:13:34;10.20;99.90
59146;DHT22;44928;53.074;6.646;2024-03-22T02:16:03;10.20;99.90
59146;DHT22;44928;53.074;6.646;2024-03-22T02:18:29;10.20;99.90
59146;DHT22;44928;53.074;6.646;2024-03-22T02:20:58;10.20;99.90
59146;DHT22;44928;53.074;6.646;2024-03-22T02:23:38;10.20;99.90
59146;DHT22;44928;53.074;6.646;2024-03-22T02:26:05;10.20;99.90
59146;DHT22;44928;53.074;6.646;2024-03-22T02:28:32;10.20;99.90
59146;DHT22;44928;53.074;6.646;2024-03-22T02:30:59;10.20;99.90
59146;DHT22;44928;53.074;6.646;2024-03-22T02:33:25;10.30;99.90
59146;DHT22;44928;53.074;6.646;2024-03-22T02:35:51;10.30;99.90
59146;DHT22;44928;53.074;6.646;2024-03-22T02:38:17;10.30;99.90
59146;DHT22;44928;53.074;6.646;2024-03-22T02:40:43;10.30;99.90
59146;DHT22;44928;53.074;6.646;2024-03-22T02:43:10;10.30;99.90
59146;DHT22;44928;53.074;6.646;2024-03-22T02:45:36;10.30;99.90
59146;DHT22;44928;53.074;6.646;2024-03-22T02:48:02;10.30;99.90
59146;DHT22;44928;53.074;6.646;2024-03-22T02:50:27;10.40;99.90
59146;DHT22;44928;53.074;6.646;2024-03-22T02:52:53;10.40;99.90
59146;DHT22;44928;53.074;6.646;2024-03-22T02:55:19;10.40;99.90
59146;DHT22;44928;53.074;6.646;2024-03-22T02:57:45;10.40;99.90
59146;DHT22;44928;53.074;6.646;2024-03-22T03:00:11;10.50;99.90
59146;DHT22;44928;53.074;6.646;2024-03-22T03:02:37;10.50;99.90
59146;DHT22;44928;53.074;6.646;2024-03-22T03:05:02;10.50;99.90
59146;DHT22;44928;53.074;6.646;2024-03-22T03:07:29;10.50;99.90
59146;DHT22;44928;53.074;6.646;2024-03-22T03:09:55;10.50;99.90
59146;DHT22;44928;53.074;6.646;2024-03-22T03:12:20;10.50;99.90
59146;DHT22;44928;53.074;6.646;2024-03-22T03:14:46;10.50;99.90
59146;DHT22;44928;53.074;6.646;2024-03-22T03:17:12;10.50;99.90
59146;DHT22;44928;53.074;6.646;2024-03-22T03:19:38;10.50;99.90
59146;DHT22;44928;53.074;6.646;2024-03-22T03:22:04;10.50;99.90
59146;DHT22;44928;53.074;6.646;2024-03-22T03:24:30;10.50;99.90
59146;DHT22;44928;53.074;6.646;2024-03-22T03:26:55;10.50;99.90
59146;DHT22;44928;53.074;6.646;2024-03-22T03:29:21;10.50;99.90
59146;DHT22;44928;53.074;6.646;2024-03-22T03:31:47;10.50;99.90
59146;DHT22;44928;53.074;6.646;2024-03-22T03:34:14;10.50;99.90
59146;DHT22;44928;53.074;6.646;2024-03-22T03:36:40;10.50;99.90
59146;DHT22;44928;53.074;6.646;2024-03-22T03:39:06;10.50;99.90
59146;DHT22;44928;53.074;6.646;2024-03-22T03:41:32;10.50;99.90
59146;DHT22;44928;53.074;6.646;2024-03-22T03:43:57;10.50;99.90
59146;DHT22;44928;53.074;6.646;2024-03-22T03:46:23;10.50;99.90
59146;DHT22;44928;53.074;6.646;2024-03-22T03:48:49;10.50;99.90
59146;DHT22;44928;53.074;6.646;2024-03-22T03:51:15;10.50;99.90
59146;DHT22;44928;53.074;6.646;2024-03-22T03:53:41;10.50;99.90
59146;DHT22;44928;53.074;6.646;2024-03-22T03:56:06;10.50;99.90
59146;DHT22;44928;53.074;6.646;2024-03-22T03:58:32;10.50;99.90
59146;DHT22;44928;53.074;6.646;2024-03-22T04:00:58;10.60;99.90
59146;DHT22;44928;53.074;6.646;2024-03-22T04:03:24;10.50;99.90
59146;DHT22;44928;53.074;6.646;2024-03-22T04:05:56;10.50;99.90
59146;DHT22;44928;53.074;6.646;2024-03-22T04:08:23;10.50;99.90
59146;DHT22;44928;53.074;6.646;2024-03-22T04:10:55;10.50;99.90
59146;DHT22;44928;53.074;6.646;2024-03-22T04:13:23;10.50;99.90
59146;DHT22;44928;53.074;6.646;2024-03-22T04:15:49;10.50;99.90
59146;DHT22;44928;53.074;6.646;2024-03-22T04:18:14;10.50;99.90
59146;DHT22;44928;53.074;6.646;2024-03-22T04:20:40;10.60;99.90
59146;DHT22;44928;53.074;6.646;2024-03-22T04:23:06;10.60;99.90
59146;DHT22;44928;53.074;6.646;2024-03-22T04:25:32;10.60;99.90
59146;DHT22;44928;53.074;6.646;2024-03-22T04:27:58;10.60;99.90
59146;DHT22;44928;53.074;6.646;2024-03-22T04:30:23;10.60;99.90
59146;DHT22;44928;53.074;6.646;2024-03-22T04:32:49;10.60;99.90
59146;DHT22;44928;53.074;6.646;2024-03-22T04:35:15;10.60;99.90
59146;DHT22;44928;53.074;6.646;2024-03-22T04:37:41;10.60;99.90
59146;DHT22;44928;53.074;6.646;2024-03-22T04:40:07;10.70;99.90
59146;DHT22;44928;53.074;6.646;2024-03-22T04:42:35;10.70;99.90
59146;DHT22;44928;53.074;6.646;2024-03-22T04:45:01;10.70;99.90
59146;DHT22;44928;53.074;6.646;2024-03-22T04:47:26;10.70;99.90
59146;DHT22;44928;53.074;6.646;2024-03-22T04:49:52;10.70;99.90
59146;DHT22;44928;53.074;6.646;2024-03-22T04:52:18;10.60;99.90
59146;DHT22;44928;53.074;6.646;2024-03-22T04:54:44;10.60;99.90
59146;DHT22;44928;53.074;6.646;2024-03-22T04:57:10;10.60;99.90
59146;DHT22;44928;53.074;6.646;2024-03-22T04:59:35;10.60;99.90
59146;DHT22;44928;53.074;6.646;2024-03-22T05:02:01;10.60;99.90
59146;DHT22;44928;53.074;6.646;2024-03-22T05:04:27;10.60;99.90
59146;DHT22;44928;53.074;6.646;2024-03-22T05:06:53;10.60;99.90
59146;DHT22;44928;53.074;6.646;2024-03-22T05:09:18;10.60;99.90
59146;DHT22;44928;53.074;6.646;2024-03-22T05:11:44;10.60;99.90
59146;DHT22;44928;53.074;6.646;2024-03-22T05:14:15;10.60;99.90
59146;DHT22;44928;53.074;6.646;2024-03-22T05:16:41;10.60;99.90
59146;DHT22;44928;53.074;6.646;2024-03-22T05:19:07;10.50;99.90
59146;DHT22;44928;53.074;6.646;2024-03-22T05:21:32;10.50;99.90
59146;DHT22;44928;53.074;6.646;2024-03-22T05:23:59;10.50;99.90
59146;DHT22;44928;53.074;6.646;2024-03-22T05:26:25;10.50;99.90
59146;DHT22;44928;53.074;6.646;2024-03-22T05:28:51;10.50;99.90
59146;DHT22;44928;53.074;6.646;2024-03-22T05:31:17;10.50;99.90
59146;DHT22;44928;53.074;6.646;2024-03-22T05:33:43;10.50;99.90
59146;DHT22;44928;53.074;6.646;2024-03-22T05:36:08;10.50;99.90
59146;DHT22;44928;53.074;6.646;2024-03-22T05:38:34;10.50;99.90
59146;DHT22;44928;53.074;6.646;2024-03-22T05:41:04;10.50;99.90
59146;DHT22;44928;53.074;6.646;2024-03-22T05:43:30;10.50;99.90
59146;DHT22;44928;53.074;6.646;2024-03-22T05:45:55;10.50;99.90
59146;DHT22;44928;53.074;6.646;2024-03-22T05:48:21;10.40;99.90
59146;DHT22;44928;53.074;6.646;2024-03-22T05:50:47;10.40;99.90
59146;DHT22;44928;53.074;6.646;2024-03-22T05:53:13;10.30;99.90
59146;DHT22;44928;53.074;6.646;2024-03-22T05:55:38;10.30;99.90
59146;DHT22;44928;53.074;6.646;2024-03-22T05:58:04;10.20;99.90
59146;DHT22;44928;53.074;6.646;2024-03-22T06:00:30;10.20;99.90
59146;DHT22;44928;53.074;6.646;2024-03-22T06:02:56;10.20;99.90
59146;DHT22;44928;53.074;6.646;2024-03-22T06:05:22;10.20;99.90
59146;DHT22;44928;53.074;6.646;2024-03-22T06:07:48;10.20;99.90
59146;DHT22;44928;53.074;6.646;2024-03-22T06:10:14;10.10;99.90
59146;DHT22;44928;53.074;6.646;2024-03-22T06:12:39;10.10;99.90
59146;DHT22;44928;53.074;6.646;2024-03-22T06:15:06;10.10;99.90
59146;DHT22;44928;53.074;6.646;2024-03-22T06:17:33;10.10;99.90
59146;DHT22;44928;53.074;6.646;2024-03-22T06:19:59;10.10;99.90
59146;DHT22;44928;53.074;6.646;2024-03-22T06:22:26;10.00;99.90
59146;DHT22;44928;53.074;6.646;2024-03-22T06:24:52;10.00;99.90
59146;DHT22;44928;53.074;6.646;2024-03-22T06:27:18;10.00;99.90
59146;DHT22;44928;53.074;6.646;2024-03-22T06:29:44;10.00;99.90
59146;DHT22;44928;53.074;6.646;2024-03-22T06:32:10;10.00;99.90
59146;DHT22;44928;53.074;6.646;2024-03-22T06:34:36;10.00;99.90
59146;DHT22;44928;53.074;6.646;2024-03-22T06:37:02;10.00;99.90
59146;DHT22;44928;53.074;6.646;2024-03-22T06:39:28;10.10;99.90
59146;DHT22;44928;53.074;6.646;2024-03-22T06:41:53;10.00;99.90
59146;DHT22;44928;53.074;6.646;2024-03-22T06:44:19;10.10;99.90
59146;DHT22;44928;53.074;6.646;2024-03-22T06:46:45;10.10;99.90
59146;DHT22;44928;53.074;6.646;2024-03-22T06:49:11;10.10;99.90
59146;DHT22;44928;53.074;6.646;2024-03-22T06:51:36;10.00;99.90
59146;DHT22;44928;53.074;6.646;2024-03-22T06:54:02;10.10;99.90
59146;DHT22;44928;53.074;6.646;2024-03-22T06:56:28;10.10;99.90
59146;DHT22;44928;53.074;6.646;2024-03-22T06:58:54;10.10;99.90
59146;DHT22;44928;53.074;6.646;2024-03-22T07:01:20;10.10;99.90
59146;DHT22;44928;53.074;6.646;2024-03-22T07:03:46;10.10;99.90
59146;DHT22;44928;53.074;6.646;2024-03-22T07:06:14;10.10;99.90
59146;DHT22;44928;53.074;6.646;2024-03-22T07:08:40;10.10;99.90
59146;DHT22;44928;53.074;6.646;2024-03-22T07:11:06;10.10;99.90
59146;DHT22;44928;53.074;6.646;2024-03-22T07:13:32;10.10;99.90
59146;DHT22;44928;53.074;6.646;2024-03-22T07:15:58;10.10;99.90
59146;DHT22;44928;53.074;6.646;2024-03-22T07:18:24;10.10;99.90
59146;DHT22;44928;53.074;6.646;2024-03-22T07:20:50;10.20;99.90
59146;DHT22;44928;53.074;6.646;2024-03-22T07:23:16;10.20;99.90
59146;DHT22;44928;53.074;6.646;2024-03-22T07:25:41;10.20;99.90
59146;DHT22;44928;53.074;6.646;2024-03-22T07:28:11;10.20;99.90
59146;DHT22;44928;53.074;6.646;2024-03-22T07:30:37;10.20;99.90
59146;DHT22;44928;53.074;6.646;2024-03-22T07:33:04;10.20;99.90
59146;DHT22;44928;53.074;6.646;2024-03-22T07:35:30;10.20;99.90
59146;DHT22;44928;53.074;6.646;2024-03-22T07:37:56;10.20;99.90
59146;DHT22;44928;53.074;6.646;2024-03-22T07:40:22;10.20;99.90
59146;DHT22;44928;53.074;6.646;2024-03-22T07:42:48;10.20;99.90
59146;DHT22;44928;53.074;6.646;2024-03-22T07:45:14;10.20;99.90
59146;DHT22;44928;53.074;6.646;2024-03-22T07:47:39;10.20;99.90
59146;DHT22;44928;53.074;6.646;2024-03-22T07:50:08;10.20;99.90
59146;DHT22;44928;53.074;6.646;2024-03-22T07:52:34;10.20;99.90
59146;DHT22;44928;53.074;6.646;2024-03-22T07:55:00;10.10;99.90
59146;DHT22;44928;53.074;6.646;2024-03-22T07:57:28;10.10;99.90
59146;DHT22;44928;53.074;6.646;2024-03-22T07:59:57;10.10;99.90
59146;DHT22;44928;53.074;6.646;2024-03-22T08:02:23;10.10;99.90
59146;DHT22;44928;53.074;6.646;2024-03-22T08:04:49;10.10;99.90
59146;DHT22;44928;53.074;6.646;2024-03-22T08:07:15;10.10;99.90
59146;DHT22;44928;53.074;6.646;2024-03-22T08:09:40;10.00;99.90
59146;DHT22;44928;53.074;6.646;2024-03-22T08:12:07;10.10;99.90
59146;DHT22;44928;53.074;6.646;2024-03-22T08:14:33;10.00;99.90
59146;DHT22;44928;53.074;6.646;2024-03-22T08:16:59;10.00;99.90
59146;DHT22;44928;53.074;6.646;2024-03-22T08:19:24;10.00;99.90
59146;DHT22;44928;53.074;6.646;2024-03-22T08:21:50;9.90;99.90
59146;DHT22;44928;53.074;6.646;2024-03-22T08:24:18;10.00;99.90
59146;DHT22;44928;53.074;6.646;2024-03-22T08:26:44;10.00;99.90
59146;DHT22;44928;53.074;6.646;2024-03-22T08:29:13;10.00;99.90
59146;DHT22;44928;53.074;6.646;2024-03-22T08:31:40;10.00;99.90
59146;DHT22;44928;53.074;6.646;2024-03-22T08:34:07;10.00;99.90
59146;DHT22;44928;53.074;6.646;2024-03-22T08:36:33;10.00;99.90
59146;DHT22;44928;53.074;6.646;2024-03-22T08:38:58;10.00;99.90
59146;DHT22;44928;53.074;6.646;2024-03-22T08:41:24;10.00;99.90
59146;DHT22;44928;53.074;6.646;2024-03-22T08:43:50;10.00;99.90
59146;DHT22;44928;53.074;6.646;2024-03-22T08:46:16;10.00;99.90
59146;DHT22;44928;53.074;6.646;2024-03-22T08:48:41;10.00;99.90
59146;DHT22;44928;53.074;6.646;2024-03-22T08:51:07;10.10;99.90
59146;DHT22;44928;53.074;6.646;2024-03-22T08:53:33;10.10;99.90
59146;DHT22;44928;53.074;6.646;2024-03-22T08:55:59;10.10;99.90
59146;DHT22;44928;53.074;6.646;2024-03-22T08:58:24;10.10;99.90
59146;DHT22;44928;53.074;6.646;2024-03-22T09:00:50;10.10;99.90
59146;DHT22;44928;53.074;6.646;2024-03-22T09:03:16;10.10;99.90
59146;DHT22;44928;53.074;6.646;2024-03-22T09:05:42;10.10;99.90
59146;DHT22;44928;53.074;6.646;2024-03-22T09:08:07;10.20;99.90
59146;DHT22;44928;53.074;6.646;2024-03-22T09:10:34;10.20;99.90
59146;DHT22;44928;53.074;6.646;2024-03-22T09:12:59;10.20;99.90
59146;DHT22;44928;53.074;6.646;2024-03-22T09:15:25;10.20;99.90
59146;DHT22;44928;53.074;6.646;2024-03-22T09:17:54;10.20;99.90
59146;DHT22;44928;53.074;6.646;2024-03-22T09:20:20;10.20;99.90
59146;DHT22;44928;53.074;6.646;2024-03-22T09:22:46;10.20;99.90
59146;DHT22;44928;53.074;6.646;2024-03-22T09:25:12;10.10;99.90
59146;DHT22;44928;53.074;6.646;2024-03-22T09:27:38;10.10;99.90
59146;DHT22;44928;53.074;6.646;2024-03-22T09:30:04;10.10;99.90
59146;DHT22;44928;53.074;6.646;2024-03-22T09:32:30;10.10;99.90
59146;DHT22;44928;53.074;6.646;2024-03-22T09:34:57;10.20;99.90
59146;DHT22;44928;53.074;6.646;2024-03-22T09:37:22;10.20;99.90
59146;DHT22;44928;53.074;6.646;2024-03-22T09:39:48;10.20;99.90
59146;DHT22;44928;53.074;6.646;2024-03-22T09:42:16;10.20;99.90
59146;DHT22;44928;53.074;6.646;2024-03-22T09:44:49;10.10;99.90
59146;DHT22;44928;53.074;6.646;2024-03-22T09:47:19;10.10;99.90
59146;DHT22;44928;53.074;6.646;2024-03-22T09:49:46;10.10;99.90
59146;DHT22;44928;53.074;6.646;2024-03-22T09:52:15;10.20;99.90
59146;DHT22;44928;53.074;6.646;2024-03-22T09:54:43;10.20;99.90
59146;DHT22;44928;53.074;6.646;2024-03-22T09:57:14;10.20;99.90
59146;DHT22;44928;53.074;6.646;2024-03-22T09:59:44;10.20;99.90
59146;DHT22;44928;53.074;6.646;2024-03-22T10:02:12;10.20;99.90
59146;DHT22;44928;53.074;6.646;2024-03-22T10:04:41;10.20;99.90
59146;DHT22;44928;53.074;6.646;2024-03-22T10:07:07;10.20;99.90
59146;DHT22;44928;53.074;6.646;2024-03-22T10:09:36;10.20;99.90
59146;DHT22;44928;53.074;6.646;2024-03-22T10:12:03;10.10;99.90
59146;DHT22;44928;53.074;6.646;2024-03-22T10:14:29;10.20;99.90
59146;DHT22;44928;53.074;6.646;2024-03-22T10:16:56;10.20;99.90
59146;DHT22;44928;53.074;6.646;2024-03-22T10:19:22;10.20;99.90
59146;DHT22;44928;53.074;6.646;2024-03-22T10:22:03;10.20;99.90
59146;DHT22;44928;53.074;6.646;2024-03-22T10:24:29;10.20;99.90
59146;DHT22;44928;53.074;6.646;2024-03-22T10:26:56;10.20;99.90
59146;DHT22;44928;53.074;6.646;2024-03-22T10:29:22;10.20;99.90
59146;DHT22;44928;53.074;6.646;2024-03-22T10:31:50;10.20;99.90
59146;DHT22;44928;53.074;6.646;2024-03-22T10:34:17;10.30;99.90
59146;DHT22;44928;53.074;6.646;2024-03-22T10:36:44;10.20;99.90
59146;DHT22;44928;53.074;6.646;2024-03-22T10:39:11;10.30;99.90
59146;DHT22;44928;53.074;6.646;2024-03-22T10:41:38;10.30;99.90
59146;DHT22;44928;53.074;6.646;2024-03-22T10:44:04;10.40;99.90
59146;DHT22;44928;53.074;6.646;2024-03-22T10:46:30;10.30;99.90
59146;DHT22;44928;53.074;6.646;2024-03-22T10:49:00;10.30;99.90
59146;DHT22;44928;53.074;6.646;2024-03-22T10:51:29;10.30;99.90
59146;DHT22;44928;53.074;6.646;2024-03-22T10:53:57;10.40;99.90
59146;DHT22;44928;53.074;6.646;2024-03-22T10:56:24;10.40;99.90
59146;DHT22;44928;53.074;6.646;2024-03-22T10:58:50;10.40;99.90
59146;DHT22;44928;53.074;6.646;2024-03-22T11:01:25;10.30;99.90
59146;DHT22;44928;53.074;6.646;2024-03-22T11:04:02;10.30;99.90
59146;DHT22;44928;53.074;6.646;2024-03-22T11:06:30;10.30;99.90
59146;DHT22;44928;53.074;6.646;2024-03-22T11:09:02;10.30;99.90
59146;DHT22;44928;53.074;6.646;2024-03-22T11:11:31;10.40;99.90
59146;DHT22;44928;53.074;6.646;2024-03-22T11:14:03;10.40;99.90
59146;DHT22;44928;53.074;6.646;2024-03-22T11:16:29;10.40;99.90
59146;DHT22;44928;53.074;6.646;2024-03-22T11:18:55;10.30;99.90
59146;DHT22;44928;53.074;6.646;2024-03-22T11:21:21;10.40;99.90
59146;DHT22;44928;53.074;6.646;2024-03-22T11:23:47;10.30;99.90
59146;DHT22;44928;53.074;6.646;2024-03-22T11:26:13;10.40;99.90
59146;DHT22;44928;53.074;6.646;2024-03-22T11:28:39;10.40;99.90
59146;DHT22;44928;53.074;6.646;2024-03-22T11:31:05;10.40;99.90
59146;DHT22;44928;53.074;6.646;2024-03-22T11:33:31;10.50;99.90
59146;DHT22;44928;53.074;6.646;2024-03-22T11:36:03;10.50;99.90
59146;DHT22;44928;53.074;6.646;2024-03-22T11:38:31;10.50;99.90
59146;DHT22;44928;53.074;6.646;2024-03-22T11:40:58;10.50;99.90
59146;DHT22;44928;53.074;6.646;2024-03-22T11:43:27;10.60;99.90
59146;DHT22;44928;53.074;6.646;2024-03-22T11:45:54;10.60;99.90
59146;DHT22;44928;53.074;6.646;2024-03-22T11:48:21;10.60;99.90
59146;DHT22;44928;53.074;6.646;2024-03-22T11:50:46;10.50;99.90
59146;DHT22;44928;53.074;6.646;2024-03-22T11:53:12;10.50;99.90
59146;DHT22;44928;53.074;6.646;2024-03-22T11:55:38;10.50;99.90
59146;DHT22;44928;53.074;6.646;2024-03-22T11:58:04;10.50;99.90
59146;DHT22;44928;53.074;6.646;2024-03-22T12:00:29;10.50;99.90
59146;DHT22;44928;53.074;6.646;2024-03-22T12:02:55;10.60;99.90
59146;DHT22;44928;53.074;6.646;2024-03-22T12:05:21;10.50;99.90
59146;DHT22;44928;53.074;6.646;2024-03-22T12:07:47;10.40;99.90
59146;DHT22;44928;53.074;6.646;2024-03-22T12:10:13;10.40;99.90
59146;DHT22;44928;53.074;6.646;2024-03-22T12:12:39;10.40;99.90
59146;DHT22;44928;53.074;6.646;2024-03-22T12:15:05;10.40;99.90
59146;DHT22;44928;53.074;6.646;2024-03-22T12:17:31;10.40;99.90
59146;DHT22;44928;53.074;6.646;2024-03-22T12:19:57;10.50;99.90
59146;DHT22;44928;53.074;6.646;2024-03-22T12:22:23;10.50;99.90
59146;DHT22;44928;53.074;6.646;2024-03-22T12:24:51;10.50;99.90
59146;DHT22;44928;53.074;6.646;2024-03-22T12:27:17;10.40;99.90
59146;DHT22;44928;53.074;6.646;2024-03-22T12:29:43;10.40;99.90
59146;DHT22;44928;53.074;6.646;2024-03-22T12:32:09;10.40;99.90
59146;DHT22;44928;53.074;6.646;2024-03-22T12:34:35;10.40;99.90
59146;DHT22;44928;53.074;6.646;2024-03-22T12:37:01;10.40;99.90
59146;DHT22;44928;53.074;6.646;2024-03-22T12:39:28;10.40;99.90
59146;DHT22;44928;53.074;6.646;2024-03-22T12:41:54;10.40;99.90
59146;DHT22;44928;53.074;6.646;2024-03-22T12:44:20;10.30;99.90
59146;DHT22;44928;53.074;6.646;2024-03-22T12:46:46;10.30;99.90
59146;DHT22;44928;53.074;6.646;2024-03-22T12:49:12;10.30;99.90
59146;DHT22;44928;53.074;6.646;2024-03-22T12:51:38;10.40;99.90
59146;DHT22;44928;53.074;6.646;2024-03-22T12:54:04;10.40;99.90
59146;DHT22;44928;53.074;6.646;2024-03-22T12:56:31;10.40;99.90
59146;DHT22;44928;53.074;6.646;2024-03-22T12:58:57;10.30;99.90
59146;DHT22;44928;53.074;6.646;2024-03-22T13:01:23;10.40;99.90
59146;DHT22;44928;53.074;6.646;2024-03-22T13:03:48;10.40;99.90
59146;DHT22;44928;53.074;6.646;2024-03-22T13:06:14;10.40;99.90
59146;DHT22;44928;53.074;6.646;2024-03-22T13:08:40;10.40;99.90
59146;DHT22;44928;53.074;6.646;2024-03-22T13:11:06;10.40;99.90
59146;DHT22;44928;53.074;6.646;2024-03-22T13:13:35;10.40;99.90
59146;DHT22;44928;53.074;6.646;2024-03-22T13:16:01;10.40;99.90
59146;DHT22;44928;53.074;6.646;2024-03-22T13:18:30;10.40;99.90
59146;DHT22;44928;53.074;6.646;2024-03-22T13:20:56;10.40;99.90
59146;DHT22;44928;53.074;6.646;2024-03-22T13:23:22;10.40;99.90
59146;DHT22;44928;53.074;6.646;2024-03-22T13:25:48;10.30;99.90
59146;DHT22;44928;53.074;6.646;2024-03-22T13:28:14;10.30;99.90
59146;DHT22;44928;53.074;6.646;2024-03-22T13:30:40;10.30;99.90
59146;DHT22;44928;53.074;6.646;2024-03-22T13:33:06;10.20;99.90
59146;DHT22;44928;53.074;6.646;2024-03-22T13:35:34;10.30;99.90
59146;DHT22;44928;53.074;6.646;2024-03-22T13:37:59;10.30;99.90
59146;DHT22;44928;53.074;6.646;2024-03-22T13:40:26;10.30;99.90
59146;DHT22;44928;53.074;6.646;2024-03-22T13:42:55;10.30;99.90
59146;DHT22;44928;53.074;6.646;2024-03-22T13:45:21;10.30;99.90
59146;DHT22;44928;53.074;6.646;2024-03-22T13:47:47;10.30;99.90
59146;DHT22;44928;53.074;6.646;2024-03-22T13:50:13;10.20;99.90
59146;DHT22;44928;53.074;6.646;2024-03-22T13:52:39;10.20;99.90
59146;DHT22;44928;53.074;6.646;2024-03-22T13:55:05;10.30;99.90
59146;DHT22;44928;53.074;6.646;2024-03-22T13:57:31;10.30;99.90
59146;DHT22;44928;53.074;6.646;2024-03-22T13:59:57;10.30;99.90
59146;DHT22;44928;53.074;6.646;2024-03-22T14:02:23;10.30;99.90
59146;DHT22;44928;53.074;6.646;2024-03-22T14:04:49;10.20;99.90
59146;DHT22;44928;53.074;6.646;2024-03-22T14:07:15;10.20;99.90
59146;DHT22;44928;53.074;6.646;2024-03-22T14:09:41;10.20;99.90
59146;DHT22;44928;53.074;6.646;2024-03-22T14:12:08;10.20;99.90
59146;DHT22;44928;53.074;6.646;2024-03-22T14:14:34;10.20;99.90
59146;DHT22;44928;53.074;6.646;2024-03-22T14:17:00;10.20;99.90
59146;DHT22;44928;53.074;6.646;2024-03-22T14:19:26;10.10;99.90
59146;DHT22;44928;53.074;6.646;2024-03-22T14:21:52;10.10;99.90
59146;DHT22;44928;53.074;6.646;2024-03-22T14:24:18;10.00;99.90
59146;DHT22;44928;53.074;6.646;2024-03-22T14:26:44;10.00;99.90
59146;DHT22;44928;53.074;6.646;2024-03-22T14:29:10;10.00;99.90
59146;DHT22;44928;53.074;6.646;2024-03-22T14:31:36;10.00;99.90
59146;DHT22;44928;53.074;6.646;2024-03-22T14:34:03;10.10;99.90
59146;DHT22;44928;53.074;6.646;2024-03-22T14:36:29;10.10;99.90
59146;DHT22;44928;53.074;6.646;2024-03-22T14:38:55;10.10;99.90
59146;DHT22;44928;53.074;6.646;2024-03-22T14:41:20;10.10;99.90
59146;DHT22;44928;53.074;6.646;2024-03-22T14:43:46;10.10;99.90
59146;DHT22;44928;53.074;6.646;2024-03-22T14:46:12;10.00;99.90
59146;DHT22;44928;53.074;6.646;2024-03-22T14:48:38;10.00;99.90
59146;DHT22;44928;53.074;6.646;2024-03-22T14:51:04;10.00;99.90
59146;DHT22;44928;53.074;6.646;2024-03-22T14:53:29;9.90;99.90
59146;DHT22;44928;53.074;6.646;2024-03-22T14:56:01;10.00;99.90
59146;DHT22;44928;53.074;6.646;2024-03-22T14:58:33;9.90;99.90
59146;DHT22;44928;53.074;6.646;2024-03-22T15:01:03;9.80;99.90
59146;DHT22;44928;53.074;6.646;2024-03-22T15:03:29;9.80;99.90
59146;DHT22;44928;53.074;6.646;2024-03-22T15:05:58;9.80;99.90
59146;DHT22;44928;53.074;6.646;2024-03-22T15:08:25;9.80;99.90
59146;DHT22;44928;53.074;6.646;2024-03-22T15:10:52;9.80;99.90
59146;DHT22;44928;53.074;6.646;2024-03-22T15:13:18;9.80;99.90
59146;DHT22;44928;53.074;6.646;2024-03-22T15:15:54;9.80;99.90
59146;DHT22;44928;53.074;6.646;2024-03-22T15:18:21;9.80;99.90
59146;DHT22;44928;53.074;6.646;2024-03-22T15:20:47;9.80;99.90
59146;DHT22;44928;53.074;6.646;2024-03-22T15:23:14;9.70;99.90
59146;DHT22;44928;53.074;6.646;2024-03-22T15:25:41;9.70;99.90
59146;DHT22;44928;53.074;6.646;2024-03-22T15:28:07;9.60;99.90